Time;durP1;ratioP1;P1;durP2;ratioP2;P2;SDS_P1;SDS_P2;PMS_P1;PMS_P2;Temp;Humidity;BMP_temperature;BMP_pressure;BME280_temperature;BME280_humidity;BME280_pressure;Samples;Min_cycle;Max_cycle;Signal;HPM_P1;HPM_P2
2022/07/18 00:01:10;;;;;;;0.57;0.35;;;24.00;61.20;;;;;;4175700;28;20126;-66
2022/07/18 00:03:32;;;;;;;0.00;0.00;;;23.90;61.20;;;;;;4177820;28;20141;-65
2022/07/18 00:05:54;;;;;;;0.20;0.20;;;23.90;61.20;;;;;;4191385;28;20051;-66
2022/07/18 00:08:16;;;;;;;0.10;0.10;;;23.90;61.30;;;;;;4191758;28;20205;-66
2022/07/18 00:10:39;;;;;;;0.00;0.00;;;23.90;61.30;;;;;;4191164;28;20380;-66
2022/07/18 00:13:01;;;;;;;0.00;0.00;;;23.90;61.40;;;;;;4191884;28;20059;-66
2022/07/18 00:15:23;;;;;;;0.00;0.00;;;23.90;61.40;;;;;;4190059;28;20067;-66
2022/07/18 00:17:46;;;;;;;0.00;0.00;;;23.90;61.50;;;;;;4175112;28;20052;-66
2022/07/18 00:20:10;;;;;;;0.05;0.05;;;23.90;61.50;;;;;;4175498;28;20159;-66
2022/07/18 00:22:32;;;;;;;0.08;0.08;;;23.90;61.50;;;;;;4190409;28;20082;-66
2022/07/18 00:24:54;;;;;;;0.22;0.22;;;23.90;61.60;;;;;;4176403;28;20049;-66
2022/07/18 00:27:17;;;;;;;0.00;0.00;;;23.90;61.60;;;;;;4176823;28;20478;-66
2022/07/18 00:29:39;;;;;;;0.00;0.00;;;23.90;61.70;;;;;;4191566;28;20135;-66
2022/07/18 00:32:01;;;;;;;0.00;0.00;;;23.90;61.70;;;;;;4175485;28;20546;-66
2022/07/18 00:34:23;;;;;;;0.38;0.32;;;23.90;61.70;;;;;;4175156;28;20045;-66
2022/07/18 00:36:45;;;;;;;0.00;0.00;;;23.80;61.70;;;;;;4175246;28;20098;-66
2022/07/18 00:39:07;;;;;;;0.00;0.00;;;23.80;61.70;;;;;;4174904;28;20059;-66
2022/07/18 00:41:29;;;;;;;1.08;0.47;;;23.80;61.70;;;;;;4182145;28;20053;-66
2022/07/18 00:43:53;;;;;;;0.00;0.00;;;23.80;61.80;;;;;;4175046;28;20045;-66
2022/07/18 00:46:15;;;;;;;0.00;0.00;;;23.80;61.80;;;;;;4190653;28;20067;-66
2022/07/18 00:48:37;;;;;;;0.00;0.00;;;23.80;61.80;;;;;;4191063;28;20051;-65
2022/07/18 00:50:59;;;;;;;0.20;0.20;;;23.80;61.80;;;;;;4194686;28;20052;-66
2022/07/18 00:53:23;;;;;;;0.15;0.15;;;23.80;61.90;;;;;;4194441;28;20115;-65
2022/07/18 00:55:47;;;;;;;0.00;0.00;;;23.80;62.90;;;;;;4194738;28;20055;-67
2022/07/18 00:58:09;;;;;;;0.30;0.20;;;23.80;62.00;;;;;;4192842;28;20471;-66
2022/07/18 01:03:12;;;;;;;0.35;0.35;;;23.80;62.10;;;;;;4177864;28;20131;-66
2022/07/18 01:05:34;;;;;;;0.05;0.05;;;23.70;62.10;;;;;;4177836;28;20150;-66
2022/07/18 01:07:56;;;;;;;0.00;0.00;;;23.80;62.10;;;;;;4176441;28;20064;-66
2022/07/18 01:10:18;;;;;;;0.28;0.28;;;23.70;62.10;;;;;;4192894;28;20048;-66
2022/07/18 01:12:40;;;;;;;1.55;1.00;;;23.70;62.20;;;;;;4179584;28;20151;-66
2022/07/18 01:15:03;;;;;;;0.10;0.10;;;23.70;62.20;;;;;;4177683;28;20476;-66
2022/07/18 01:17:27;;;;;;;0.05;0.05;;;23.70;62.20;;;;;;4192955;28;20557;-66
2022/07/18 01:19:53;;;;;;;0.00;0.00;;;23.70;62.20;;;;;;4193712;28;20056;-66
2022/07/18 01:22:19;;;;;;;0.00;0.00;;;23.70;62.30;;;;;;4194562;28;20567;-66
2022/07/18 01:24:41;;;;;;;0.00;0.00;;;23.70;62.40;;;;;;4193982;28;20438;-66
2022/07/18 01:27:04;;;;;;;0.00;0.00;;;23.70;62.30;;;;;;4193080;28;20435;-66
2022/07/18 01:29:26;;;;;;;0.00;0.00;;;23.70;62.40;;;;;;4192305;28;20400;-66
2022/07/18 01:31:48;;;;;;;0.22;0.22;;;23.70;62.40;;;;;;4193986;28;20049;-65
2022/07/18 01:34:11;;;;;;;0.00;0.00;;;23.60;62.30;;;;;;4194167;28;20391;-65
2022/07/18 01:36:33;;;;;;;0.10;0.10;;;23.60;62.40;;;;;;4194132;28;20532;-66
2022/07/18 01:38:57;;;;;;;0.08;0.08;;;23.60;63.30;;;;;;4193084;28;20102;-65
2022/07/18 01:41:19;;;;;;;0.00;0.00;;;23.60;62.50;;;;;;4194111;28;20105;-66
2022/07/18 01:43:42;;;;;;;0.00;0.00;;;23.60;62.40;;;;;;4193989;28;20059;-65
2022/07/18 01:46:04;;;;;;;0.00;0.00;;;23.60;62.50;;;;;;4192378;28;20086;-65
2022/07/18 01:48:26;;;;;;;0.05;0.05;;;23.60;62.50;;;;;;4193533;28;20136;-65
2022/07/18 01:50:48;;;;;;;0.55;0.55;;;23.60;62.50;;;;;;4193969;28;20141;-66
2022/07/18 01:53:10;;;;;;;0.00;0.00;;;23.60;62.50;;;;;;4193411;28;20079;-65
2022/07/18 01:55:33;;;;;;;0.17;0.17;;;23.60;62.50;;;;;;4194019;28;20484;-66
2022/07/18 01:57:55;;;;;;;0.60;0.40;;;23.60;62.60;;;;;;4193340;28;20048;-66
2022/07/18 02:00:17;;;;;;;0.00;0.00;;;23.60;62.60;;;;;;4176788;28;20044;-66
2022/07/18 02:02:40;;;;;;;0.10;0.10;;;23.60;62.60;;;;;;4177455;28;20223;-66
2022/07/18 02:05:03;;;;;;;0.10;0.10;;;23.50;62.70;;;;;;4175595;28;20061;-67
2022/07/18 02:07:25;;;;;;;0.00;0.00;;;23.50;62.80;;;;;;4192978;28;20071;-67
2022/07/18 02:09:47;;;;;;;0.00;0.00;;;23.50;62.90;;;;;;4185016;28;20068;-65
2022/07/18 02:12:11;;;;;;;0.00;0.00;;;23.50;62.80;;;;;;4177234;28;20060;-66
2022/07/18 02:14:33;;;;;;;1.17;1.17;;;23.50;62.90;;;;;;4176773;28;20048;-65
2022/07/18 02:16:55;;;;;;;0.00;0.00;;;23.50;63.00;;;;;;4191724;28;20092;-65
2022/07/18 02:19:17;;;;;;;0.22;0.22;;;23.50;63.00;;;;;;4191805;28;20086;-64
2022/07/18 02:21:39;;;;;;;0.00;0.00;;;23.50;62.90;;;;;;4176803;28;20414;-65
2022/07/18 02:24:01;;;;;;;0.00;0.00;;;23.50;62.90;;;;;;4176372;28;20099;-65
2022/07/18 02:26:23;;;;;;;0.00;0.00;;;23.50;62.90;;;;;;4191753;28;20102;-66
2022/07/18 02:28:46;;;;;;;0.20;0.20;;;23.50;62.90;;;;;;4191796;28;20059;-65
2022/07/18 02:31:08;;;;;;;0.00;0.00;;;23.40;62.90;;;;;;4191607;28;20121;-65
2022/07/18 02:33:30;;;;;;;0.00;0.00;;;23.40;62.90;;;;;;4176721;28;20401;-65
2022/07/18 02:35:53;;;;;;;0.28;0.28;;;23.40;63.00;;;;;;4193018;28;20049;-66
2022/07/18 02:38:14;;;;;;;0.20;0.20;;;23.50;63.10;;;;;;4192856;28;20537;-65
2022/07/18 02:40:37;;;;;;;0.00;0.00;;;23.40;63.00;;;;;;4193204;28;20048;-65
2022/07/18 02:42:58;;;;;;;1.35;1.35;;;23.40;63.10;;;;;;4192436;28;20403;-65
2022/07/18 02:45:22;;;;;;;0.00;0.00;;;23.40;63.10;;;;;;4176512;28;20491;-65
2022/07/18 02:47:44;;;;;;;0.25;0.25;;;23.40;63.10;;;;;;4175176;28;20128;-65
2022/07/18 02:50:07;;;;;;;0.45;0.45;;;23.40;63.10;;;;;;4176490;28;20111;-65
2022/07/18 02:52:29;;;;;;;0.00;0.00;;;23.40;63.10;;;;;;4159377;28;20111;-65
2022/07/18 02:54:51;;;;;;;0.38;0.38;;;23.30;63.10;;;;;;4176368;28;20140;-65
2022/07/18 02:57:13;;;;;;;0.00;0.00;;;23.30;63.10;;;;;;4173538;28;20114;-65
2022/07/18 02:59:35;;;;;;;0.00;0.00;;;23.40;63.10;;;;;;4176443;28;20075;-65
2022/07/18 03:01:59;;;;;;;0.00;0.00;;;23.40;63.10;;;;;;4176222;28;20060;-65
2022/07/18 03:04:22;;;;;;;0.00;0.00;;;23.30;63.10;;;;;;4175970;28;20542;-66
2022/07/18 03:06:43;;;;;;;0.10;0.10;;;23.30;63.10;;;;;;4202583;28;20510;-65
2022/07/18 03:09:06;;;;;;;0.00;0.00;;;23.30;63.20;;;;;;4176092;28;20075;-65
2022/07/18 03:11:28;;;;;;;2.00;0.55;;;23.30;63.30;;;;;;4175737;28;20444;-66
2022/07/18 03:13:50;;;;;;;0.52;0.52;;;23.30;63.20;;;;;;4175830;28;20091;-66
2022/07/18 03:16:12;;;;;;;0.00;0.00;;;23.30;63.20;;;;;;4183503;28;20828;-66
2022/07/18 03:18:35;;;;;;;0.47;0.45;;;23.30;63.30;;;;;;4191153;28;20068;-66
2022/07/18 03:20:57;;;;;;;0.00;0.00;;;23.20;63.20;;;;;;4190900;28;20411;-66
2022/07/18 03:23:19;;;;;;;0.00;0.00;;;23.20;63.30;;;;;;4172682;28;20151;-66
2022/07/18 03:25:41;;;;;;;0.00;0.00;;;23.20;63.30;;;;;;4175896;28;20098;-68
2022/07/18 03:28:03;;;;;;;0.00;0.00;;;23.20;63.30;;;;;;4191282;28;20059;-66
2022/07/18 03:30:25;;;;;;;0.10;0.10;;;23.20;63.30;;;;;;4192186;28;20406;-65
2022/07/18 03:32:48;;;;;;;7.28;1.25;;;23.20;63.30;;;;;;4192136;28;20128;-65
2022/07/18 03:35:11;;;;;;;0.25;0.25;;;23.20;63.30;;;;;;4192190;28;20523;-65
2022/07/18 03:37:33;;;;;;;0.00;0.00;;;23.20;63.40;;;;;;4175846;28;20102;-65
2022/07/18 03:39:55;;;;;;;0.00;0.00;;;23.20;63.40;;;;;;4175637;28;20056;-66
2022/07/18 03:42:17;;;;;;;0.10;0.10;;;23.20;63.40;;;;;;4190602;28;20093;-65
2022/07/18 03:44:39;;;;;;;0.00;0.00;;;23.20;63.50;;;;;;4176530;28;20079;-66
2022/07/18 03:47:01;;;;;;;0.00;0.00;;;23.10;64.30;;;;;;4175431;28;20051;-66
2022/07/18 03:49:23;;;;;;;0.00;0.00;;;23.10;63.40;;;;;;4175417;28;20056;-65
2022/07/18 03:51:47;;;;;;;0.00;0.00;;;23.10;63.40;;;;;;4174350;28;20506;-65
2022/07/18 03:54:09;;;;;;;0.10;0.10;;;23.10;63.40;;;;;;4174392;28;20103;-65
2022/07/18 03:56:31;;;;;;;0.00;0.00;;;23.10;63.40;;;;;;4174404;28;20083;-65
2022/07/18 03:58:53;;;;;;;0.10;0.10;;;23.20;63.50;;;;;;4175546;28;20492;-65
2022/07/18 04:01:15;;;;;;;0.25;0.25;;;23.10;63.40;;;;;;4183525;28;20056;-66
2022/07/18 04:03:37;;;;;;;4.05;0.65;;;23.10;63.50;;;;;;4191647;28;20064;-64
2022/07/18 04:06:00;;;;;;;0.00;0.00;;;23.10;63.60;;;;;;4192146;28;20079;-65
2022/07/18 04:08:23;;;;;;;0.45;0.45;;;23.10;63.50;;;;;;4191689;28;20047;-65
2022/07/18 04:10:45;;;;;;;1.73;0.90;;;23.10;63.60;;;;;;4176831;28;20491;-66
2022/07/18 04:13:08;;;;;;;0.45;0.45;;;23.10;63.60;;;;;;4166386;28;20080;-65
2022/07/18 04:15:31;;;;;;;0.10;0.10;;;23.10;63.60;;;;;;4192178;28;20052;-66
2022/07/18 04:17:54;;;;;;;0.10;0.10;;;23.10;63.50;;;;;;4191741;28;20390;-67
2022/07/18 04:20:18;;;;;;;0.00;0.00;;;23.10;63.50;;;;;;4191820;28;20052;-65
2022/07/18 04:22:49;;;;;;;0.00;0.00;;;23.10;63.60;;;;;;4174747;28;20049;-65
2022/07/18 04:25:12;;;;;;;0.08;0.08;;;23.10;63.60;;;;;;4178046;28;20818;-65
2022/07/18 04:27:34;;;;;;;0.00;0.00;;;23.10;64.40;;;;;;4194894;28;20109;-65
2022/07/18 04:29:57;;;;;;;1.10;0.55;;;23.10;64.40;;;;;;4180867;28;20064;-65
2022/07/18 04:32:18;;;;;;;0.30;0.30;;;23.10;63.50;;;;;;4193916;28;20134;-65
2022/07/18 04:34:40;;;;;;;0.28;0.28;;;23.10;63.70;;;;;;4194508;28;20049;-65
2022/07/18 04:37:03;;;;;;;0.00;0.00;;;23.10;63.60;;;;;;4178357;28;20080;-65
2022/07/18 04:39:24;;;;;;;0.17;0.17;;;23.10;63.60;;;;;;4177830;28;20145;-65
2022/07/18 04:41:48;;;;;;;0.00;0.00;;;23.10;63.60;;;;;;4193238;28;20086;-65
2022/07/18 04:44:10;;;;;;;0.00;0.00;;;23.10;63.60;;;;;;4178303;28;20144;-65
2022/07/18 04:46:32;;;;;;;0.00;0.00;;;23.10;63.60;;;;;;4178421;28;20099;-65
2022/07/18 04:48:54;;;;;;;0.00;0.00;;;23.10;63.70;;;;;;4177851;28;20468;-65
2022/07/18 04:51:16;;;;;;;0.08;0.08;;;23.10;63.60;;;;;;4194410;28;20048;-65
2022/07/18 04:53:38;;;;;;;0.03;0.03;;;23.10;63.60;;;;;;4186092;28;20059;-65
2022/07/18 04:56:00;;;;;;;0.10;0.10;;;23.10;63.60;;;;;;4193198;28;20826;-66
2022/07/18 04:58:24;;;;;;;0.38;0.38;;;23.10;63.60;;;;;;4193930;28;20048;-66
2022/07/18 05:00:46;;;;;;;0.00;0.00;;;23.10;63.60;;;;;;4193368;28;20130;-65
2022/07/18 05:03:08;;;;;;;1.10;0.70;;;23.10;63.60;;;;;;4194266;28;20071;-65
2022/07/18 05:05:30;;;;;;;0.25;0.25;;;23.00;63.70;;;;;;4194715;28;20431;-66
2022/07/18 05:07:57;;;;;;;0.03;0.03;;;23.10;63.70;;;;;;4194311;28;20438;-66
2022/07/18 05:10:22;;;;;;;0.00;0.00;;;23.00;63.70;;;;;;4167232;28;20175;-66
2022/07/18 05:12:47;;;;;;;0.00;0.00;;;23.10;63.80;;;;;;4161402;28;20059;-65
2022/07/18 05:15:12;;;;;;;0.03;0.03;;;23.10;63.70;;;;;;4161530;28;20057;-66
2022/07/18 05:17:35;;;;;;;0.30;0.30;;;23.10;63.70;;;;;;4161295;28;20053;-65
2022/07/18 05:19:57;;;;;;;0.00;0.00;;;23.10;63.70;;;;;;4194342;28;20479;-67
2022/07/18 05:22:19;;;;;;;0.00;0.00;;;23.10;63.90;;;;;;4194120;28;20052;-66
2022/07/18 05:24:41;;;;;;;0.00;0.00;;;23.10;64.30;;;;;;4177710;28;20053;-67
2022/07/18 05:27:03;;;;;;;2.08;1.25;;;23.10;64.30;;;;;;4194130;28;20040;-67
2022/07/18 05:29:25;;;;;;;0.40;0.40;;;23.10;64.20;;;;;;4191789;28;20102;-66
2022/07/18 05:31:48;;;;;;;0.00;0.00;;;23.10;64.00;;;;;;4194149;28;20052;-66
2022/07/18 05:34:11;;;;;;;0.00;0.00;;;23.10;63.70;;;;;;4193933;28;20135;-66
2022/07/18 05:36:33;;;;;;;0.30;0.30;;;23.10;63.80;;;;;;4193420;28;20074;-66
2022/07/18 05:38:55;;;;;;;0.17;0.17;;;23.10;63.70;;;;;;4194018;28;20050;-66
2022/07/18 05:41:17;;;;;;;0.63;0.47;;;23.10;63.70;;;;;;4194258;28;20581;-66
2022/07/18 05:43:39;;;;;;;12.68;1.33;;;23.10;63.80;;;;;;4193313;28;20048;-66
2022/07/18 05:46:01;;;;;;;0.55;0.55;;;23.10;63.70;;;;;;4193886;28;20127;-67
2022/07/18 05:48:25;;;;;;;0.00;0.00;;;23.00;63.80;;;;;;4177864;28;20045;-66
2022/07/18 05:50:47;;;;;;;0.00;0.00;;;23.00;63.80;;;;;;4193655;28;20133;-66
2022/07/18 05:53:09;;;;;;;2.65;1.20;;;23.00;63.80;;;;;;4193514;28;20054;-65
2022/07/18 05:55:32;;;;;;;0.00;0.00;;;23.00;63.80;;;;;;4193627;28;20403;-66
2022/07/18 05:57:54;;;;;;;0.00;0.00;;;23.00;63.80;;;;;;4192909;28;20522;-66
2022/07/18 06:00:17;;;;;;;0.00;0.00;;;23.00;63.80;;;;;;4192147;28;20105;-67
2022/07/18 06:02:39;;;;;;;0.20;0.20;;;23.00;63.80;;;;;;4192241;28;20045;-66
2022/07/18 06:05:04;;;;;;;0.00;0.00;;;23.00;63.90;;;;;;4182359;28;20047;-66
2022/07/18 06:07:44;;;;;;;0.00;0.00;;;23.00;64.00;;;;;;4188490;28;20508;-66
2022/07/18 06:10:07;;;;;;;0.15;0.15;;;23.00;64.00;;;;;;4190820;28;20125;-65
2022/07/18 06:12:31;;;;;;;0.47;0.47;;;23.00;64.00;;;;;;4187597;28;20049;-66
2022/07/18 06:14:53;;;;;;;0.25;0.25;;;23.00;64.00;;;;;;4187947;28;20139;-66
2022/07/18 06:17:15;;;;;;;0.00;0.00;;;23.00;63.90;;;;;;4190030;28;20048;-66
2022/07/18 06:19:39;;;;;;;0.00;0.00;;;23.10;63.90;;;;;;4173359;28;20051;-66
2022/07/18 06:22:03;;;;;;;0.00;0.00;;;23.00;63.90;;;;;;4189684;28;20423;-66
2022/07/18 06:24:24;;;;;;;0.08;0.08;;;23.10;64.80;;;;;;4189189;28;20048;-66
2022/07/18 06:26:46;;;;;;;0.00;0.00;;;23.10;63.90;;;;;;4190659;28;20063;-66
2022/07/18 06:29:10;;;;;;;0.00;0.00;;;23.10;63.80;;;;;;4190236;28;20141;-67
2022/07/18 06:31:32;;;;;;;0.00;0.00;;;23.10;63.80;;;;;;4189803;28;20557;-66
2022/07/18 06:33:54;;;;;;;0.00;0.00;;;23.10;64.60;;;;;;4190113;28;20566;-66
2022/07/18 06:36:23;;;;;;;0.15;0.15;;;23.10;63.60;;;;;;4189952;28;20561;-67
2022/07/18 06:38:46;;;;;;;0.00;0.00;;;23.10;63.50;;;;;;4189585;28;20048;-68
2022/07/18 06:41:08;;;;;;;0.00;0.00;;;23.10;63.40;;;;;;4190166;28;20067;-68
2022/07/18 06:43:31;;;;;;;0.20;0.20;;;23.10;63.30;;;;;;4188845;28;20052;-67
2022/07/18 06:45:53;;;;;;;1.60;1.38;;;23.20;63.10;;;;;;4190321;28;20555;-67
2022/07/18 06:48:15;;;;;;;0.00;0.00;;;23.20;63.00;;;;;;4188539;28;20800;-67
2022/07/18 06:50:38;;;;;;;0.10;0.10;;;23.30;62.90;;;;;;4189486;28;20063;-68
2022/07/18 06:53:00;;;;;;;0.00;0.00;;;23.30;62.80;;;;;;4189763;28;20055;-67
2022/07/18 06:55:23;;;;;;;0.50;0.50;;;23.30;62.70;;;;;;4188892;28;20094;-68
2022/07/18 06:57:45;;;;;;;0.75;0.75;;;23.40;62.50;;;;;;4189422;28;20056;-67
2022/07/18 07:00:11;;;;;;;0.00;0.00;;;23.40;62.10;;;;;;4163657;28;20060;-68
2022/07/18 07:02:33;;;;;;;0.20;0.05;;;23.40;61.70;;;;;;4173018;28;20064;-66
2022/07/18 07:04:55;;;;;;;0.00;0.00;;;23.50;61.30;;;;;;4188937;28;20055;-67
2022/07/18 07:07:17;;;;;;;0.00;0.00;;;23.40;61.70;;;;;;4189782;28;20048;-66
2022/07/18 07:09:39;;;;;;;0.00;0.00;;;23.50;60.60;;;;;;4190307;28;20570;-66
2022/07/18 07:12:03;;;;;;;0.15;0.15;;;23.50;60.40;;;;;;4189207;28;20052;-65
2022/07/18 07:14:25;;;;;;;0.13;0.13;;;23.50;60.00;;;;;;4189782;28;20476;-66
2022/07/18 07:16:48;;;;;;;0.00;0.00;;;23.60;59.90;;;;;;4189473;28;20125;-65
2022/07/18 07:19:10;;;;;;;0.00;0.00;;;23.60;59.80;;;;;;4189754;28;20131;-65
2022/07/18 07:21:32;;;;;;;0.43;0.43;;;23.70;59.70;;;;;;4188028;28;20053;-65
2022/07/18 07:23:55;;;;;;;0.28;0.28;;;23.70;59.20;;;;;;4189531;28;20044;-65
2022/07/18 07:26:17;;;;;;;0.52;0.52;;;23.80;58.80;;;;;;4189383;28;20041;-65
2022/07/18 07:28:41;;;;;;;0.00;0.00;;;23.80;58.40;;;;;;4189690;28;20060;-66
2022/07/18 07:31:03;;;;;;;0.00;0.00;;;23.80;58.20;;;;;;4189704;28;20071;-65
2022/07/18 07:33:25;;;;;;;0.00;0.00;;;23.90;58.00;;;;;;4189218;28;20130;-66
2022/07/18 07:35:47;;;;;;;0.00;0.00;;;23.90;57.70;;;;;;4189859;28;20560;-66
2022/07/18 07:38:10;;;;;;;0.03;0.03;;;24.00;57.40;;;;;;4188196;28;20055;-66
2022/07/18 07:40:32;;;;;;;0.28;0.28;;;24.00;57.10;;;;;;4188780;28;20143;-66
2022/07/18 07:43:04;;;;;;;0.00;0.00;;;24.00;56.90;;;;;;4189382;28;20055;-66
2022/07/18 07:45:27;;;;;;;0.00;0.00;;;24.10;56.90;;;;;;4189601;28;20534;-66
2022/07/18 07:47:50;;;;;;;0.38;0.38;;;24.10;56.70;;;;;;4189441;28;20071;-66
2022/07/18 07:50:13;;;;;;;0.32;0.32;;;24.10;56.70;;;;;;4188800;28;20064;-65
2022/07/18 07:52:35;;;;;;;1.35;1.25;;;24.20;56.60;;;;;;4189359;28;20059;-65
2022/07/18 07:54:57;;;;;;;0.00;0.00;;;24.10;56.20;;;;;;4189554;28;20501;-66
2022/07/18 07:57:20;;;;;;;0.00;0.00;;;24.20;56.10;;;;;;4189435;28;20101;-65
2022/07/18 07:59:41;;;;;;;0.75;0.75;;;24.20;56.00;;;;;;4188909;28;20129;-66
2022/07/18 08:02:05;;;;;;;0.00;0.00;;;24.30;56.10;;;;;;4189353;28;20113;-66
2022/07/18 08:04:27;;;;;;;0.00;0.00;;;24.30;56.00;;;;;;4189019;28;20399;-66
2022/07/18 08:06:50;;;;;;;0.05;0.05;;;24.30;55.80;;;;;;4189639;28;20403;-66
2022/07/18 08:09:12;;;;;;;0.00;0.00;;;24.30;56.50;;;;;;4187877;28;20436;-66
2022/07/18 08:11:34;;;;;;;0.00;0.00;;;24.30;55.70;;;;;;4189504;28;20051;-66
2022/07/18 08:13:56;;;;;;;0.98;0.43;;;24.40;55.60;;;;;;4189201;28;20533;-66
2022/07/18 08:16:19;;;;;;;0.08;0.08;;;24.40;55.40;;;;;;4189525;28;20086;-66
2022/07/18 08:18:42;;;;;;;0.00;0.00;;;24.40;55.00;;;;;;4188728;28;20099;-66
2022/07/18 08:21:04;;;;;;;0.00;0.00;;;24.40;54.60;;;;;;4189638;28;20075;-67
2022/07/18 08:23:26;;;;;;;0.00;0.00;;;24.40;54.50;;;;;;4189437;28;20063;-65
2022/07/18 08:25:48;;;;;;;0.43;0.43;;;24.40;54.50;;;;;;4172750;28;20274;-66
2022/07/18 08:28:10;;;;;;;0.20;0.20;;;24.40;54.70;;;;;;4172563;28;20053;-65
2022/07/18 08:30:33;;;;;;;0.10;0.10;;;24.40;54.80;;;;;;4187775;28;20055;-66
2022/07/18 08:32:55;;;;;;;1.48;1.38;;;24.40;54.80;;;;;;4188375;28;20058;-66
2022/07/18 08:35:19;;;;;;;0.10;0.10;;;24.40;55.10;;;;;;4187590;28;20044;-66
2022/07/18 08:37:41;;;;;;;0.00;0.00;;;24.50;55.20;;;;;;4188682;28;20052;-66
2022/07/18 08:40:04;;;;;;;0.00;0.00;;;24.40;55.30;;;;;;4188529;28;20094;-67
2022/07/18 08:42:27;;;;;;;0.03;0.03;;;24.50;55.80;;;;;;4188777;28;20407;-66
2022/07/18 08:44:50;;;;;;;0.40;0.40;;;24.50;55.90;;;;;;4188724;28;20487;-66
2022/07/18 08:47:13;;;;;;;0.05;0.05;;;24.50;55.60;;;;;;4188755;28;20376;-66
2022/07/18 08:49:36;;;;;;;0.00;0.00;;;24.60;55.40;;;;;;4189201;28;20049;-66
2022/07/18 08:52:00;;;;;;;0.00;0.00;;;24.60;55.20;;;;;;4189498;28;20139;-66
2022/07/18 08:54:22;;;;;;;0.20;0.20;;;24.60;55.00;;;;;;4189618;28;20460;-66
2022/07/18 08:56:44;;;;;;;0.13;0.13;;;24.60;54.80;;;;;;4188927;28;20138;-66
2022/07/18 08:59:06;;;;;;;0.00;0.00;;;24.70;54.60;;;;;;4187550;28;20047;-66
2022/07/18 09:01:28;;;;;;;0.60;0.60;;;24.60;54.20;;;;;;4189148;28;20045;-66
2022/07/18 09:06:26;;;;;;;0.75;0.75;;;24.70;54.00;;;;;;4188375;28;20048;-67
2022/07/18 09:09:01;;;;;;;0.00;0.00;;;24.70;53.80;;;;;;4188916;28;20055;-66
2022/07/18 09:11:23;;;;;;;0.30;0.30;;;24.70;53.70;;;;;;4189496;28;20553;-66
2022/07/18 09:14:05;;;;;;;0.00;0.00;;;24.70;53.60;;;;;;4190203;28;20048;-66
2022/07/18 09:16:27;;;;;;;0.10;0.10;;;24.70;53.70;;;;;;4191388;28;20049;-66
2022/07/18 09:18:50;;;;;;;0.00;0.00;;;24.70;53.70;;;;;;4191947;28;20048;-66
2022/07/18 09:21:15;;;;;;;0.38;0.17;;;24.70;53.80;;;;;;4189934;28;20068;-66
2022/07/18 09:23:39;;;;;;;0.05;0.05;;;24.70;53.80;;;;;;4191712;28;20048;-66
2022/07/18 09:26:04;;;;;;;0.20;0.20;;;24.70;53.70;;;;;;4190855;28;20105;-66
2022/07/18 09:28:26;;;;;;;0.00;0.00;;;24.70;53.50;;;;;;4191750;28;20044;-67
2022/07/18 09:30:49;;;;;;;0.00;0.00;;;24.70;54.00;;;;;;4190624;28;20045;-66
2022/07/18 09:33:11;;;;;;;0.00;0.00;;;24.80;53.10;;;;;;4191541;28;20044;-66
2022/07/18 09:35:35;;;;;;;0.00;0.00;;;24.80;53.00;;;;;;4183636;28;20094;-66
2022/07/18 09:37:59;;;;;;;7.03;1.73;;;24.80;52.80;;;;;;4188886;28;20532;-66
2022/07/18 09:40:24;;;;;;;0.00;0.00;;;24.80;52.70;;;;;;4190710;28;20052;-66
2022/07/18 09:42:51;;;;;;;0.00;0.00;;;24.90;52.50;;;;;;4190346;28;20509;-66
2022/07/18 09:45:13;;;;;;;0.00;0.00;;;24.90;52.60;;;;;;4189756;28;20044;-66
2022/07/18 09:47:50;;;;;;;0.00;0.00;;;24.90;52.50;;;;;;4191686;28;20070;-66
2022/07/18 09:50:21;;;;;;;0.00;0.00;;;24.90;52.60;;;;;;4190859;28;20130;-66
2022/07/18 09:52:43;;;;;;;0.00;0.00;;;24.90;52.60;;;;;;4191320;28;20102;-66
2022/07/18 09:55:06;;;;;;;0.52;0.52;;;25.00;52.70;;;;;;4190675;28;20098;-65
2022/07/18 09:57:28;;;;;;;0.00;0.00;;;24.90;52.60;;;;;;4190268;28;20048;-66
2022/07/18 09:59:52;;;;;;;0.00;0.00;;;25.00;52.70;;;;;;4190399;28;20049;-66
2022/07/18 10:02:14;;;;;;;0.00;0.00;;;25.00;52.70;;;;;;4191067;28;20040;-66
2022/07/18 10:04:36;;;;;;;0.00;0.00;;;25.00;52.70;;;;;;4191167;28;20060;-67
2022/07/18 10:06:58;;;;;;;0.00;0.00;;;25.00;52.70;;;;;;4190303;28;20113;-66
2022/07/18 10:09:20;;;;;;;0.00;0.00;;;25.10;52.60;;;;;;4190666;28;20045;-66
2022/07/18 10:11:43;;;;;;;0.30;0.30;;;25.10;52.40;;;;;;4190666;28;20055;-66
2022/07/18 10:14:06;;;;;;;0.00;0.00;;;25.10;52.40;;;;;;4191282;28;20044;-67
2022/07/18 10:16:30;;;;;;;0.00;0.00;;;25.20;52.20;;;;;;4189625;28;20059;-67
2022/07/18 10:18:52;;;;;;;0.00;0.00;;;25.20;52.00;;;;;;4188457;28;20055;-67
2022/07/18 10:21:15;;;;;;;0.70;0.70;;;25.20;52.10;;;;;;4190425;28;20538;-66
2022/07/18 10:23:41;;;;;;;0.00;0.00;;;25.30;52.00;;;;;;4190705;28;20041;-66
2022/07/18 10:26:14;;;;;;;0.00;0.00;;;25.30;51.60;;;;;;4189814;28;20565;-68
2022/07/18 10:28:36;;;;;;;0.65;0.65;;;25.30;51.20;;;;;;4158379;28;20052;-69
2022/07/18 10:31:14;;;;;;;0.00;0.00;;;25.30;51.10;;;;;;4174618;28;20078;-67
2022/07/18 10:33:44;;;;;;;0.00;0.00;;;25.30;50.90;;;;;;4190930;28;20400;-67
2022/07/18 10:36:08;;;;;;;0.00;0.00;;;25.40;50.90;;;;;;4189931;28;20048;-70
2022/07/18 10:38:34;;;;;;;0.10;0.10;;;25.40;50.80;;;;;;4190149;28;20107;-68
2022/07/18 10:41:11;;;;;;;0.00;0.00;;;25.40;50.60;;;;;;4190455;28;20048;-68
2022/07/18 10:43:39;;;;;;;0.00;0.00;;;25.50;50.60;;;;;;4189848;28;20209;-67
2022/07/18 10:46:04;;;;;;;0.00;0.00;;;25.50;50.60;;;;;;4190398;28;20470;-68
2022/07/18 10:48:50;;;;;;;0.00;0.00;;;25.50;50.70;;;;;;4190231;28;20130;-67
2022/07/18 10:51:15;;;;;;;0.00;0.00;;;25.60;50.70;;;;;;4190410;28;20396;-67
2022/07/18 10:53:56;;;;;;;0.10;0.10;;;25.60;50.60;;;;;;4190119;28;20052;-67
2022/07/18 10:56:18;;;;;;;0.05;0.05;;;25.60;50.30;;;;;;4188831;28;20093;-68
2022/07/18 10:58:40;;;;;;;0.00;0.00;;;25.60;50.20;;;;;;4173734;28;20049;-67
2022/07/18 11:01:08;;;;;;;2.55;0.95;;;25.70;50.20;;;;;;4190031;28;20139;-68
2022/07/18 11:03:30;;;;;;;0.00;0.00;;;25.80;50.00;;;;;;4190300;28;20060;-67
2022/07/18 11:05:55;;;;;;;0.00;0.00;;;25.80;50.00;;;;;;4189889;28;20157;-68
2022/07/18 11:08:24;;;;;;;0.08;0.08;;;25.80;49.90;;;;;;4189912;28;20486;-67
2022/07/18 11:11:19;;;;;;;0.05;0.05;;;25.80;49.60;;;;;;4190217;28;20056;-67
2022/07/18 11:13:48;;;;;;;0.00;0.00;;;25.90;50.00;;;;;;4137243;28;20623;-68
2022/07/18 11:16:12;;;;;;;0.00;0.00;;;25.90;49.30;;;;;;4137928;28;20260;-68
2022/07/18 11:19:14;;;;;;;0.00;0.00;;;25.90;49.00;;;;;;4161699;28;20063;-66
2022/07/18 11:21:37;;;;;;;0.00;0.00;;;25.90;48.70;;;;;;4189580;28;20085;-66
2022/07/18 11:24:02;;;;;;;0.00;0.00;;;25.90;48.50;;;;;;4189372;28;20044;-66
2022/07/18 11:26:25;;;;;;;0.00;0.00;;;26.00;48.40;;;;;;4189635;28;20105;-66
2022/07/18 11:28:49;;;;;;;0.00;0.00;;;25.90;48.20;;;;;;4188562;28;20127;-66
2022/07/18 11:31:13;;;;;;;0.00;0.00;;;26.00;48.10;;;;;;4188042;28;20051;-67
2022/07/18 11:33:38;;;;;;;0.13;0.13;;;26.00;47.90;;;;;;4188848;28;20056;-67
2022/07/18 11:36:05;;;;;;;0.00;0.00;;;26.10;47.80;;;;;;4189814;28;20040;-66
2022/07/18 11:38:29;;;;;;;0.00;0.00;;;26.10;47.80;;;;;;4188930;28;20125;-68
2022/07/18 11:40:52;;;;;;;0.00;0.00;;;26.10;48.00;;;;;;4189533;28;20117;-69
2022/07/18 11:43:20;;;;;;;0.00;0.00;;;26.10;48.00;;;;;;4189002;28;20479;-68
2022/07/18 11:45:43;;;;;;;0.00;0.00;;;26.20;48.20;;;;;;4189829;28;20131;-67
2022/07/18 11:48:05;;;;;;;0.15;0.15;;;26.20;48.10;;;;;;4173092;28;20053;-67
2022/07/18 11:50:37;;;;;;;0.50;0.50;;;26.20;48.20;;;;;;4189741;28;20052;-67
2022/07/18 11:52:59;;;;;;;0.00;0.00;;;26.20;48.40;;;;;;4189040;28;20055;-65
2022/07/18 11:55:34;;;;;;;0.00;0.00;;;26.30;49.00;;;;;;4189222;28;20395;-65
2022/07/18 11:57:56;;;;;;;0.00;0.00;;;26.30;49.50;;;;;;4187919;28;20072;-65
2022/07/18 12:00:20;;;;;;;0.00;0.00;;;26.30;49.50;;;;;;4189608;28;20054;-65
2022/07/18 12:03:06;;;;;;;0.00;0.00;;;26.30;49.30;;;;;;4187806;28;20056;-64
2022/07/18 12:05:36;;;;;;;0.00;0.00;;;26.30;49.30;;;;;;4157291;28;20083;-66
2022/07/18 12:07:58;;;;;;;0.00;0.00;;;26.30;49.30;;;;;;4189111;28;20055;-66
2022/07/18 12:10:22;;;;;;;0.45;0.45;;;26.30;49.30;;;;;;4189684;28;20056;-65
2022/07/18 12:12:44;;;;;;;0.00;0.00;;;26.30;49.30;;;;;;4189020;28;20452;-65
2022/07/18 12:15:07;;;;;;;0.10;0.10;;;26.40;49.40;;;;;;4189642;28;20163;-66
2022/07/18 12:17:29;;;;;;;4.07;0.55;;;26.40;49.30;;;;;;4189149;28;20072;-66
2022/07/18 12:19:52;;;;;;;0.00;0.00;;;26.40;50.10;;;;;;4189411;28;20996;-66
2022/07/18 12:22:14;;;;;;;0.00;0.00;;;26.40;49.30;;;;;;4187812;28;20131;-66
2022/07/18 12:24:38;;;;;;;0.30;0.30;;;26.40;49.30;;;;;;4189555;28;20842;-66
2022/07/18 12:27:18;;;;;;;0.00;0.00;;;26.40;49.30;;;;;;4187976;28;20186;-66
2022/07/18 12:30:05;;;;;;;0.70;0.60;;;26.40;49.30;;;;;;4187936;28;20051;-66
2022/07/18 12:32:28;;;;;;;0.88;0.13;;;26.50;49.30;;;;;;4189121;28;20055;-66
2022/07/18 12:34:56;;;;;;;0.00;0.00;;;26.50;49.30;;;;;;4180353;28;20134;-66